Bensenville, IL

8:40 AM CST on March 06, 2015 (GMT -0600)
WDJH | Change Station
CLOSE
Current Station
Personal Weather Station
Location: Wood Dale, IL
Elevation: 719 ft
Nearby Weather Stations

Elev 719 ft 41.98 °N, 87.98 °W | Updated 32 seconds ago

Mostly Cloudy
Mostly Cloudy
13.2 °F
Feels Like 1 °F
N
9.0
Wind Variable Wind from SSW
Gusts 15.0 mph

Today
High -- | Low -- °F
--% Chance of Precip.
Yesterday
High -- | Low -- °F
Precip. -- in
6:19 AM 5:47 PM
Full, 99% visible
Pressure 30.46 in
Visibility 10.0 miles
Clouds Scattered Clouds 14000 ft
Mostly Cloudy 25000 ft
Windchill 1 °F
Dew Point 5 °F
Humidity 68%
Rainfall in
Snow Depth Not available.
UV 1 out of 12
Pollen .20 out of 12
Air Quality Not available.
Flu Activity Not available.
METAR KORD 061351Z 21012G18KT 10SM SCT140 BKN250 M13/M18 A3041 RMK AO2 SLP313 T11281178

More Conditions Fewer Conditions

Pressure 30.46 in
Visibility 10.0 miles
Clouds Scattered Clouds 14000 ft
Mostly Cloudy 25000 ft
Windchill 1 °F
Dew Point 5 °F
Humidity 68%
Rainfall in
Snow Depth Not available.
UV 1 out of 12
Pollen .20 out of 12
Air Quality Not available.
Flu Activity Not available.
METAR KORD 061351Z 21012G18KT 10SM SCT140 BKN250 M13/M18 A3041 RMK AO2 SLP313 T11281178

More Conditions Fewer Conditions

10-Day Weather Forecast

Almanac

Astronomy

Mar. 06, 2015 Rise Set
Actual Time
Civil Twilight
Nautical Twilight
Astronomical Twilight
Moon
Length of Visible Light
Length of Day
Tomorrow will be .
, % of the Moon is Illuminated

Today's Extremes

State Highs State Lows

Community

WunderPhotos

Upload Photos

1,803,285 photos uploaded!

WunderBlogs® & News

Nearby

Air Quality

  Air Quality AQ Index Pollutant
Not available.

Snow Depth

Station Depth Elevation

Earthquake Activity

City Distance Mag. Time & Date
Minimum magnitude displayed is 2.5.

Coastal Water Temperatures

Place Temperature

Nearby Weather Stations